Mariner A — 9HVA7 — position and weather

sailwx.info

Track history (hours):
 
Tides and Currents Weather Stations Pressure Air Temp Water Temp Dewpoint Dewpoint Depression Visibility Wind Speed Wind Dir Waves Ship Positions

Mariner A

Last reported at 2015-Jul-03 18:33 UTC. Time now 2015-Jul-08 02:17 UTC.
Position N 37°26' E 023°45'.

Length 176 m; draft 10.1 m.

Type: Tanker. MMSI: 215817000.

Date/timePositionNaut miles runAvg speedWind from/ knotsBaromVisibWave heightAir tempDewpointWater temp
2015-Jul-03 18:33N 37°26' E 023°45'1312.7
2015-Jul-03 17:33N 37°39' E 023°42'1212.3
2015-Jul-03 16:33N 37°49' E 023°34'1312.6
2015-Jul-03 15:33N 37°52' E 023°19'11 1.8
2015-Jul-03 09:32N 37°55' E 023°05'0 0.0
2015-Jul-03 03:20N 37°55' E 023°05'0 0.0
2015-Jul-03 02:32N 37°55' E 023°05'0 0.0
2015-Jul-03 01:26N 37°55' E 023°05'1 0.0
2015-Jul-01 17:28N 37°54' E 023°05'0 0.1
2015-Jul-01 13:28N 37°54' E 023°05'0 0.0
2015-Jul-01 12:28N 37°54' E 023°05'0 0.0
2015-Jul-01 11:28N 37°54' E 023°05'0 0.1
2015-Jul-01 09:28N 37°54' E 023°05'0 0.0
2015-Jul-01 08:28N 37°54' E 023°05'0 0.0
2015-Jul-01 06:10N 37°54' E 023°05'0 0.0
2015-Jul-01 05:28N 37°54' E 023°05'0 0.0
2015-Jul-01 04:28N 37°54' E 023°05'0 0.0
2015-Jul-01 03:28N 37°54' E 023°05'0 0.0
2015-Jul-01 00:21N 37°54' E 023°05'0 0.1
2015-Jun-30 22:15N 37°54' E 023°05'0 0.1
2015-Jun-30 21:09N 37°54' E 023°05'0 0.1
2015-Jun-30 20:33N 37°54' E 023°05'0 0.1
2015-Jun-30 19:27N 37°54' E 023°05'0 0.0
2015-Jun-30 16:27N 37°54' E 023°05'0 0.1
2015-Jun-30 15:33N 37°54' E 023°05'0 0.2
2015-Jun-30 14:33N 37°54' E 023°05'0 0.0
2015-Jun-30 12:15N 37°54' E 023°05'0 0.0
2015-Jun-30 11:15N 37°54' E 023°05'0 0.0
2015-Jun-30 10:27N 37°54' E 023°05'0 0.0
2015-Jun-30 07:21N 37°54' E 023°05'0 0.0
2015-Jun-30 06:33N 37°54' E 023°05'0 0.1
2015-Jun-30 05:33N 37°54' E 023°05'5 5.3
2015-Jun-30 04:31N 37°53' E 023°12'1212.9
2015-Jun-30 03:33N 37°50' E 023°27'1111.4
2015-Jun-30 02:33N 37°47' E 023°41'1312.6
2015-Jun-30 01:33N 37°37' E 023°52'2711.7
2015-Jun-29 23:13N 37°49' E 024°24'  
2015-Jun-25 04:08N 37°39' E 024°29'3312.7
2015-Jun-25 01:31N 37°13' E 024°03'1212.8
2015-Jun-25 00:33N 37°04' E 023°52'1312.6
2015-Jun-24 23:34N 36°55' E 023°41'33512.4
2015-Jun-23 20:31N 36°58' E 016°42'1312.9
2015-Jun-23 19:32N 36°60' E 016°26'613.0
2015-Jun-23 19:04N 37°00' E 016°19'  
Track history (hours):
 
Tides and Currents Weather Stations Pressure Air Temp Water Temp Dewpoint Dewpoint Depression Visibility Wind Speed Wind Dir Waves Ship Positions

Mariner A

Last reported at 2015-Jul-03 18:33 UTC. Time now 2015-Jul-08 02:17 UTC.
Position N 37°26' E 023°45'.

Length 176 m; draft 10.1 m.

Type: Tanker. MMSI: 215817000.

Date/timePositionNaut miles runAvg speedWind from/ knotsBaromVisibWave heightAir tempDewpointWater temp
2015-Jul-03 18:33N 37°26' E 023°45'1312.7
2015-Jul-03 17:33N 37°39' E 023°42'1212.3
2015-Jul-03 16:33N 37°49' E 023°34'1312.6
2015-Jul-03 15:33N 37°52' E 023°19'11 1.8
2015-Jul-03 09:32N 37°55' E 023°05'0 0.0
2015-Jul-03 03:20N 37°55' E 023°05'0 0.0
2015-Jul-03 02:32N 37°55' E 023°05'0 0.0
2015-Jul-03 01:26N 37°55' E 023°05'1 0.0
2015-Jul-01 17:28N 37°54' E 023°05'0 0.1
2015-Jul-01 13:28N 37°54' E 023°05'0 0.0
2015-Jul-01 12:28N 37°54' E 023°05'0 0.0
2015-Jul-01 11:28N 37°54' E 023°05'0 0.1
2015-Jul-01 09:28N 37°54' E 023°05'0 0.0
2015-Jul-01 08:28N 37°54' E 023°05'0 0.0
2015-Jul-01 06:10N 37°54' E 023°05'0 0.0
2015-Jul-01 05:28N 37°54' E 023°05'0 0.0
2015-Jul-01 04:28N 37°54' E 023°05'0 0.0
2015-Jul-01 03:28N 37°54' E 023°05'0 0.0
2015-Jul-01 00:21N 37°54' E 023°05'0 0.1
2015-Jun-30 22:15N 37°54' E 023°05'0 0.1
2015-Jun-30 21:09N 37°54' E 023°05'0 0.1
2015-Jun-30 20:33N 37°54' E 023°05'0 0.1
2015-Jun-30 19:27N 37°54' E 023°05'0 0.0
2015-Jun-30 16:27N 37°54' E 023°05'0 0.1
2015-Jun-30 15:33N 37°54' E 023°05'0 0.2
2015-Jun-30 14:33N 37°54' E 023°05'0 0.0
2015-Jun-30 12:15N 37°54' E 023°05'0 0.0
2015-Jun-30 11:15N 37°54' E 023°05'0 0.0
2015-Jun-30 10:27N 37°54' E 023°05'0 0.0
2015-Jun-30 07:21N 37°54' E 023°05'0 0.0
2015-Jun-30 06:33N 37°54' E 023°05'0 0.1
2015-Jun-30 05:33N 37°54' E 023°05'5 5.3
2015-Jun-30 04:31N 37°53' E 023°12'1212.9
2015-Jun-30 03:33N 37°50' E 023°27'1111.4
2015-Jun-30 02:33N 37°47' E 023°41'1312.6
2015-Jun-30 01:33N 37°37' E 023°52'2711.7
2015-Jun-29 23:13N 37°49' E 024°24'  
2015-Jun-25 04:08N 37°39' E 024°29'3312.7
2015-Jun-25 01:31N 37°13' E 024°03'1212.8
2015-Jun-25 00:33N 37°04' E 023°52'1312.6
2015-Jun-24 23:34N 36°55' E 023°41'33512.4
2015-Jun-23 20:31N 36°58' E 016°42'1312.9
2015-Jun-23 19:32N 36°60' E 016°26'613.0
2015-Jun-23 19:04N 37°00' E 016°19'  

Dump ship's entire track history